Terminal Aerodrome Forecast
Issued by NWS Nashville, TN

Current Version | Previous Version | Text Only | Print | Product List | Glossary On
Versions: 1 2 3 4 5 6 7 8 9 10 11 12 13 14 15 16 17 18 19 20 21 22 23
000
FTUS44 KOHX 280400 AAF
TAFBNA
TAF AMD
KBNA 280440Z 2805/2824 18009KT 1SM BR BKN004 OVC030
      TEMPO 2805/2809 4SM -SHRA BR SCT004 OVC015
     FM280900 33010KT 3SM SHRA BR OVC004
     FM281200 34008KT 4SM -SHRA BR OVC006
     FM282000 35005KT 5SM BR OVC008
      TEMPO 2820/2824 3SM -SHRA BR=

USA.gov is the U.S. government's official web portal to all federal, state and local government web resources and services.